createdAt,value
2024-04-18T00:00:38.444Z,199.84
2024-04-18T00:01:38.460Z,198.48
2024-04-18T00:02:38.469Z,198.82
2024-04-18T00:03:38.702Z,199.69
2024-04-18T00:04:38.616Z,198.17
2024-04-18T00:05:38.663Z,197.79
2024-04-18T00:06:38.634Z,197.98
2024-04-18T00:07:38.636Z,199.54
2024-04-18T00:08:38.697Z,198.29
2024-04-18T00:09:38.742Z,199.67
2024-04-18T00:10:38.733Z,198.85
2024-04-18T00:11:38.792Z,199.02
2024-04-18T00:12:38.879Z,198.86
2024-04-18T00:13:38.859Z,198.78
2024-04-18T00:14:38.887Z,198.86
2024-04-18T00:15:38.951Z,199.09
2024-04-18T00:16:38.965Z,197.90
2024-04-18T00:17:39.189Z,199.14
2024-04-18T00:18:39.144Z,199.41
2024-04-18T00:19:39.094Z,198.54
2024-04-18T00:20:39.095Z,198.61
2024-04-18T00:21:39.193Z,196.86
2024-04-18T00:22:39.124Z,199.16
2024-04-18T00:23:39.121Z,198.42
2024-04-18T00:24:39.205Z,199.37
2024-04-18T00:25:39.238Z,199.27
2024-04-18T00:26:39.244Z,199.02
2024-04-18T00:27:39.377Z,199.91
2024-04-18T00:28:39.474Z,198.65
2024-04-18T00:29:39.455Z,199.09
2024-04-18T00:30:39.476Z,199.82
2024-04-18T00:31:39.475Z,199.67
2024-04-18T00:32:39.463Z,198.80
2024-04-18T00:33:39.482Z,198.62
2024-04-18T00:34:39.513Z,198.98
2024-04-18T00:35:39.539Z,199.90
2024-04-18T00:36:39.609Z,198.90
2024-04-18T00:37:39.568Z,198.66
2024-04-18T00:38:39.596Z,198.71
2024-04-18T00:39:39.643Z,199.17
2024-04-18T00:40:39.645Z,199.59
2024-04-18T00:41:39.625Z,198.13
2024-04-18T00:42:39.766Z,197.88
2024-04-18T00:43:39.637Z,198.12
2024-04-18T00:44:39.637Z,197.94
2024-04-18T00:45:39.721Z,198.36
2024-04-18T00:46:39.691Z,198.61
2024-04-18T00:47:39.773Z,198.20
2024-04-18T00:48:39.845Z,198.52
2024-04-18T00:49:39.747Z,199.20
2024-04-18T00:50:39.746Z,198.84
2024-04-18T00:51:39.806Z,199.36
2024-04-18T00:52:39.851Z,199.88
2024-04-18T00:53:39.872Z,199.84
2024-04-18T00:54:39.961Z,198.77
2024-04-18T00:55:39.889Z,198.33
2024-04-18T00:56:39.894Z,199.04
2024-04-18T00:57:39.946Z,198.32
2024-04-18T00:58:39.921Z,198.28
2024-04-18T00:59:39.928Z,199.56
2024-04-18T01:00:39.972Z,199.49
2024-04-18T01:01:39.930Z,199.62
2024-04-18T01:02:39.940Z,198.96
2024-04-18T01:03:40.013Z,199.47
2024-04-18T01:04:40.022Z,200.00
2024-04-18T01:05:40.019Z,199.25
2024-04-18T01:06:40.022Z,199.97
2024-04-18T01:07:39.965Z,197.79
2024-04-18T01:08:39.969Z,198.83
2024-04-18T01:09:40.031Z,199.80
2024-04-18T01:10:39.988Z,199.10
2024-04-18T01:11:40.110Z,198.91
2024-04-18T01:12:40.041Z,199.19
2024-04-18T01:13:40.068Z,198.99
2024-04-18T01:14:40.048Z,198.94
2024-04-18T01:15:40.130Z,198.20
2024-04-18T01:16:40.103Z,198.81
2024-04-18T01:17:40.179Z,198.41
2024-04-18T01:18:40.147Z,198.04
2024-04-18T01:19:40.120Z,198.71
2024-04-18T01:20:40.113Z,199.23
2024-04-18T01:21:40.160Z,200.00
2024-04-18T01:22:40.146Z,197.79
2024-04-18T01:23:40.198Z,199.24
2024-04-18T01:24:40.161Z,198.73
2024-04-18T01:25:40.165Z,199.20
2024-04-18T01:26:40.224Z,198.48
2024-04-18T01:27:40.260Z,198.64
2024-04-18T01:28:40.195Z,198.04
2024-04-18T01:29:40.174Z,198.55
2024-04-18T01:30:40.284Z,197.98
2024-04-18T01:31:40.213Z,199.42
2024-04-18T01:32:40.293Z,197.72
2024-04-18T01:33:40.326Z,200.00
2024-04-18T01:34:40.362Z,199.29
2024-04-18T01:35:40.232Z,197.37
2024-04-18T01:36:40.284Z,198.51
2024-04-18T01:37:40.232Z,198.79
2024-04-18T01:38:40.255Z,198.54
2024-04-18T01:39:40.393Z,198.37
2024-04-18T01:40:40.334Z,198.57
2024-04-18T01:41:40.257Z,198.38
2024-04-18T01:42:40.339Z,198.05
2024-04-18T01:43:40.267Z,198.18
2024-04-18T01:44:40.273Z,198.59
2024-04-18T01:45:40.311Z,199.75
2024-04-18T01:46:40.292Z,198.77
2024-04-18T01:47:40.351Z,198.14
2024-04-18T01:48:40.387Z,198.90
2024-04-18T01:49:40.346Z,198.66
2024-04-18T01:50:40.360Z,197.94
2024-04-18T01:51:40.377Z,199.43
2024-04-18T01:52:40.363Z,198.32
2024-04-18T01:53:40.335Z,199.21
2024-04-18T01:54:40.415Z,199.25
2024-04-18T01:55:40.398Z,197.92
2024-04-18T01:56:40.394Z,198.77
2024-04-18T01:57:40.501Z,198.03
2024-04-18T01:58:40.443Z,198.00
2024-04-18T01:59:40.410Z,198.71
2024-04-18T02:00:40.492Z,199.07
2024-04-18T02:01:40.460Z,198.50
2024-04-18T02:02:40.467Z,198.05
2024-04-18T02:03:40.686Z,198.64
2024-04-18T02:04:40.547Z,199.05
2024-04-18T02:05:40.544Z,198.57
2024-04-18T02:06:40.524Z,198.73
2024-04-18T02:07:40.535Z,199.36
2024-04-18T02:08:40.563Z,199.12
2024-04-18T02:09:40.560Z,198.55
2024-04-18T02:10:40.578Z,198.75
2024-04-18T02:11:40.572Z,198.38
2024-04-18T02:12:40.574Z,199.31
2024-04-18T02:13:40.588Z,199.37
2024-04-18T02:14:40.730Z,199.33
2024-04-18T02:15:40.733Z,199.00
2024-04-18T02:16:40.676Z,198.94
2024-04-18T02:17:40.733Z,199.44
2024-04-18T02:18:40.698Z,199.47
2024-04-18T02:19:40.685Z,198.75
2024-04-18T02:20:40.696Z,199.65
2024-04-18T02:21:40.832Z,199.14
2024-04-18T02:22:40.711Z,198.35
2024-04-18T02:23:40.719Z,199.68
2024-04-18T02:24:40.779Z,198.34
2024-04-18T02:25:40.755Z,198.19
2024-04-18T02:26:40.774Z,199.19
2024-04-18T02:27:40.799Z,199.37
2024-04-18T02:28:40.778Z,198.04
2024-04-18T02:29:40.971Z,198.33
2024-04-18T02:30:41.032Z,198.79
2024-04-18T02:31:40.882Z,198.70
2024-04-18T02:32:41.018Z,198.30
2024-04-18T02:33:40.934Z,199.25
2024-04-18T02:34:40.873Z,197.86
2024-04-18T02:35:40.946Z,198.55
2024-04-18T02:36:41.022Z,199.15
2024-04-18T02:37:40.877Z,198.58
2024-04-18T02:38:40.959Z,198.05
2024-04-18T02:39:40.988Z,198.51
2024-04-18T02:40:40.990Z,199.34
2024-04-18T02:41:40.964Z,199.21
2024-04-18T02:42:41.101Z,197.66
2024-04-18T02:43:40.990Z,199.34
2024-04-18T02:44:41.071Z,200.12
2024-04-18T02:45:41.134Z,198.25
2024-04-18T02:46:41.109Z,198.42
2024-04-18T02:47:41.112Z,198.21
2024-04-18T02:48:41.207Z,198.02
2024-04-18T02:49:41.076Z,199.23
2024-04-18T02:50:41.345Z,198.87
2024-04-18T02:51:41.146Z,198.02
2024-04-18T02:52:41.144Z,198.32
2024-04-18T02:53:41.177Z,197.91
2024-04-18T02:54:41.258Z,197.68
2024-04-18T02:55:41.216Z,198.88
2024-04-18T02:56:41.218Z,198.81
2024-04-18T02:57:41.355Z,197.82
2024-04-18T02:58:41.236Z,199.34
2024-04-18T02:59:41.323Z,197.49
2024-04-18T03:00:41.392Z,198.97
2024-04-18T03:01:41.362Z,198.67
2024-04-18T03:02:41.357Z,198.69
2024-04-18T03:03:41.397Z,198.14
2024-04-18T03:04:41.398Z,197.86
2024-04-18T03:05:41.448Z,198.83
2024-04-18T03:06:41.492Z,199.56
2024-04-18T03:07:41.404Z,198.66
2024-04-18T03:08:41.508Z,198.86
2024-04-18T03:09:41.544Z,199.48
2024-04-18T03:10:41.480Z,198.07
2024-04-18T03:11:41.536Z,198.08
2024-04-18T03:12:41.560Z,199.12
2024-04-18T03:13:41.541Z,198.37
2024-04-18T03:14:41.622Z,199.25
2024-04-18T03:15:41.566Z,198.46
2024-04-18T03:16:41.625Z,199.12
2024-04-18T03:17:41.693Z,198.49
2024-04-18T03:18:41.756Z,198.79
2024-04-18T03:19:41.689Z,199.27
2024-04-18T03:20:41.702Z,199.55
2024-04-18T03:21:41.731Z,198.84
2024-04-18T03:22:41.774Z,199.14
2024-04-18T03:23:41.785Z,198.28
2024-04-18T03:24:41.824Z,199.87
2024-04-18T03:25:41.896Z,199.30
2024-04-18T03:26:41.791Z,199.32
2024-04-18T03:27:41.871Z,199.52
2024-04-18T03:28:41.837Z,198.63
2024-04-18T03:29:41.877Z,199.12
2024-04-18T03:30:41.890Z,198.83
2024-04-18T03:31:41.935Z,199.96
2024-04-18T03:32:41.989Z,198.79
2024-04-18T03:33:42.029Z,199.36
2024-04-18T03:34:42.004Z,198.69
2024-04-18T03:35:42.039Z,198.89
2024-04-18T03:36:42.081Z,198.44
2024-04-18T03:37:42.078Z,197.59
2024-04-18T03:38:42.142Z,197.88
2024-04-18T03:39:42.120Z,199.76
2024-04-18T03:40:42.096Z,197.52
2024-04-18T03:41:42.161Z,198.35
2024-04-18T03:42:42.223Z,199.39
2024-04-18T03:43:42.324Z,200.00
2024-04-18T03:44:42.224Z,198.64
2024-04-18T03:45:42.255Z,198.16
2024-04-18T03:46:42.240Z,197.35
2024-04-18T03:47:42.466Z,196.96
2024-04-18T03:48:42.335Z,197.51
2024-04-18T03:49:42.308Z,198.62
2024-04-18T03:50:42.302Z,197.88
2024-04-18T03:51:42.536Z,199.26
2024-04-18T03:52:42.510Z,198.04
2024-04-18T03:53:42.390Z,198.30
2024-04-18T03:54:55.870Z,198.21
2024-04-18T03:55:43.480Z,198.27
2024-04-18T03:56:42.457Z,198.39
2024-04-18T03:57:42.476Z,198.46
2024-04-18T03:58:42.493Z,198.38
2024-04-18T03:59:42.479Z,198.61
2024-04-18T04:00:43.101Z,199.19
2024-04-18T04:01:42.541Z,199.81
2024-04-18T04:02:42.541Z,197.25
2024-04-18T04:03:42.532Z,197.28
2024-04-18T04:04:42.453Z,195.92
2024-04-18T04:05:42.474Z,194.91
2024-04-18T04:06:42.570Z,193.89
2024-04-18T04:07:42.474Z,191.48
2024-04-18T04:08:42.492Z,188.35
2024-04-18T04:09:42.462Z,187.91
2024-04-18T04:10:42.471Z,185.23
2024-04-18T04:11:42.468Z,184.23
2024-04-18T04:12:42.502Z,179.17
2024-04-18T04:13:50.206Z,50.00
2024-04-18T04:14:50.218Z,50.00
2024-04-18T04:15:50.221Z,50.00
2024-04-18T04:16:50.187Z,50.00
2024-04-18T04:17:50.276Z,50.00
2024-04-18T04:18:50.220Z,50.79
2024-04-18T04:19:50.179Z,50.69
2024-04-18T04:20:50.157Z,50.00
2024-04-18T04:21:50.291Z,51.41
2024-04-18T04:22:50.160Z,52.58
2024-04-18T04:23:50.172Z,52.70
2024-04-18T04:24:50.230Z,52.18
2024-04-18T04:25:50.184Z,53.20
2024-04-18T04:26:50.187Z,51.16
2024-04-18T04:27:50.296Z,51.75
2024-04-18T04:28:50.209Z,52.31
2024-04-18T04:29:50.219Z,50.34
2024-04-18T04:30:58.075Z,50.00
2024-04-18T04:32:05.742Z,50.00
2024-04-18T04:33:05.716Z,50.00
2024-04-18T04:34:05.702Z,50.00
2024-04-18T04:35:05.714Z,50.00
2024-04-18T04:36:05.724Z,50.00
2024-04-18T04:37:05.721Z,50.16
2024-04-18T04:38:05.761Z,51.02
2024-04-18T04:39:05.756Z,52.57
2024-04-18T04:40:05.691Z,50.00
2024-04-18T04:41:05.692Z,50.00
2024-04-18T04:42:05.693Z,52.04
2024-04-18T04:43:05.688Z,52.56
2024-04-18T04:44:05.689Z,53.95
2024-04-18T04:45:05.711Z,50.94
2024-04-18T04:46:05.709Z,50.71
2024-04-18T04:47:05.786Z,51.63
2024-04-18T04:48:05.775Z,53.02
2024-04-18T04:49:05.785Z,53.77
2024-04-18T04:50:05.717Z,53.66
2024-04-18T04:51:05.720Z,54.28
2024-04-18T04:52:05.713Z,53.70
2024-04-18T04:53:05.731Z,57.89
2024-04-18T04:54:05.732Z,56.30
2024-04-18T04:55:05.745Z,55.15
2024-04-18T04:56:05.736Z,53.66
2024-04-18T04:57:05.692Z,56.38
2024-04-18T04:58:05.714Z,57.06
2024-04-18T04:59:05.743Z,55.86
2024-04-18T05:00:05.707Z,56.57
2024-04-18T05:01:05.836Z,55.53
2024-04-18T05:02:05.730Z,57.57
2024-04-18T05:03:05.759Z,56.47
2024-04-18T05:04:05.812Z,57.16
2024-04-18T05:05:05.736Z,56.77
2024-04-18T05:06:05.727Z,55.51
2024-04-18T05:07:05.745Z,53.35
2024-04-18T05:08:05.736Z,52.67
2024-04-18T05:09:05.727Z,51.21
2024-04-18T05:10:05.760Z,54.44
2024-04-18T05:11:05.736Z,52.70
2024-04-18T05:12:05.760Z,52.35
2024-04-18T05:13:05.726Z,52.26
2024-04-18T05:14:05.763Z,52.49
2024-04-18T05:15:05.769Z,52.35
2024-04-18T05:16:05.759Z,54.40
2024-04-18T05:17:05.799Z,53.86
2024-04-18T05:18:05.795Z,51.36
2024-04-18T05:19:05.835Z,54.28
2024-04-18T05:20:05.767Z,51.74
2024-04-18T05:21:05.752Z,51.79
2024-04-18T05:22:05.832Z,51.97
2024-04-18T05:23:05.734Z,54.26
2024-04-18T05:24:05.854Z,51.13
2024-04-18T05:25:05.751Z,51.63
2024-04-18T05:26:05.758Z,51.63
2024-04-18T05:27:05.764Z,51.77
2024-04-18T05:28:05.789Z,50.71
2024-04-18T05:29:05.873Z,52.42
2024-04-18T05:30:05.830Z,51.98
2024-04-18T05:31:05.834Z,54.13
2024-04-18T05:32:05.994Z,50.64
2024-04-18T05:33:05.982Z,53.36
2024-04-18T05:34:06.031Z,51.66
2024-04-18T05:35:05.964Z,51.90
2024-04-18T05:36:06.063Z,53.49
2024-04-18T05:37:06.062Z,51.92
2024-04-18T05:38:06.135Z,52.38
2024-04-18T05:39:06.146Z,55.79
2024-04-18T05:40:06.235Z,59.68
2024-04-18T05:41:06.271Z,57.37
2024-04-18T05:42:06.371Z,56.75
2024-04-18T05:43:06.387Z,58.57
2024-04-18T05:44:06.371Z,57.56
2024-04-18T05:45:06.381Z,58.72
2024-04-18T05:46:06.496Z,60.54
2024-04-18T05:47:06.972Z,61.54
2024-04-18T05:48:06.521Z,59.84
2024-04-18T05:49:06.565Z,60.08
2024-04-18T05:50:06.617Z,57.36
2024-04-18T05:51:06.628Z,56.29
2024-04-18T05:52:06.910Z,55.55
2024-04-18T05:53:07.420Z,51.72
2024-04-18T05:54:06.804Z,54.52
2024-04-18T05:55:06.817Z,51.21
2024-04-18T05:56:06.801Z,53.67
2024-04-18T05:57:06.891Z,53.28
2024-04-18T05:58:06.911Z,54.81
2024-04-18T05:59:06.934Z,58.41
2024-04-18T06:00:06.942Z,59.82
2024-04-18T06:01:07.097Z,61.74
2024-04-18T06:02:09.242Z,61.26
2024-04-18T06:03:07.025Z,66.53
2024-04-18T06:04:07.147Z,68.88
2024-04-18T06:05:06.979Z,72.07
2024-04-18T06:06:06.990Z,74.34
2024-04-18T06:07:07.414Z,77.78
2024-04-18T06:08:07.069Z,77.71
2024-04-18T06:09:06.991Z,77.58
2024-04-18T06:10:06.998Z,81.65
2024-04-18T06:11:07.398Z,82.88
2024-04-18T06:12:06.974Z,88.08
2024-04-18T06:13:06.981Z,90.09
2024-04-18T06:14:07.498Z,91.74
2024-04-18T06:15:07.027Z,93.50
2024-04-18T06:16:07.099Z,98.06
2024-04-18T06:17:07.014Z,100.29
2024-04-18T06:18:08.015Z,101.26
2024-04-18T06:19:07.900Z,104.73
2024-04-18T06:20:07.054Z,107.44
2024-04-18T06:21:07.041Z,109.72
2024-04-18T06:22:06.999Z,110.53
2024-04-18T06:23:07.028Z,115.06
2024-04-18T06:24:07.012Z,115.68
2024-04-18T06:25:08.712Z,115.79
2024-04-18T06:26:07.095Z,116.41
2024-04-18T06:27:07.145Z,119.90
2024-04-18T06:28:07.960Z,120.81
2024-04-18T06:29:07.469Z,125.58
2024-04-18T06:30:07.024Z,125.98
2024-04-18T06:31:09.258Z,125.55
2024-04-18T06:32:07.015Z,128.53
2024-04-18T06:33:07.143Z,130.18
2024-04-18T06:34:07.521Z,128.12
2024-04-18T06:35:07.090Z,131.23
2024-04-18T06:36:08.068Z,132.07
2024-04-18T06:37:08.362Z,132.90
2024-04-18T06:38:07.403Z,133.17
2024-04-18T06:39:07.117Z,133.18
2024-04-18T06:40:07.085Z,133.30
2024-04-18T06:41:07.421Z,135.97
2024-04-18T06:42:07.019Z,137.78
2024-04-18T06:43:07.054Z,139.11
2024-04-18T06:44:07.030Z,138.48
2024-04-18T06:45:07.031Z,139.54
2024-04-18T06:46:07.966Z,142.44
2024-04-18T06:47:07.487Z,146.29
2024-04-18T06:48:07.126Z,148.59
2024-04-18T06:49:07.072Z,149.05
2024-04-18T06:50:07.046Z,151.04
2024-04-18T06:51:07.092Z,151.98
2024-04-18T06:52:07.382Z,153.66
2024-04-18T06:53:07.825Z,155.62
2024-04-18T06:54:07.057Z,156.14
2024-04-18T06:55:07.041Z,154.73
2024-04-18T06:56:07.097Z,158.23
2024-04-18T06:57:07.954Z,158.58
2024-04-18T06:58:07.030Z,158.74
2024-04-18T06:59:07.120Z,161.77
2024-04-18T07:00:07.101Z,161.04
2024-04-18T07:01:07.223Z,160.73
2024-04-18T07:02:07.469Z,162.85
2024-04-18T07:03:07.148Z,163.47
2024-04-18T07:04:07.245Z,164.93
2024-04-18T07:05:13.925Z,164.45
2024-04-18T07:06:10.377Z,164.61
2024-04-18T07:07:07.181Z,164.55
2024-04-18T07:08:07.424Z,164.90
2024-04-18T07:09:07.169Z,165.38
2024-04-18T07:10:07.273Z,162.83
2024-04-18T07:11:08.042Z,163.44
2024-04-18T07:12:07.179Z,162.64
2024-04-18T07:13:07.506Z,165.79
2024-04-18T07:14:07.260Z,162.54
2024-04-18T07:15:07.204Z,161.86
2024-04-18T07:16:07.224Z,160.74
2024-04-18T07:17:07.288Z,161.71
2024-04-18T07:18:07.916Z,162.72
2024-04-18T07:19:07.265Z,162.36
2024-04-18T07:20:07.255Z,161.42
2024-04-18T07:21:07.967Z,163.40
2024-04-18T07:22:08.021Z,161.49
2024-04-18T07:23:07.415Z,164.36
2024-04-18T07:24:07.239Z,162.45
2024-04-18T07:25:07.207Z,162.50
2024-04-18T07:26:07.929Z,164.15
2024-04-18T07:27:07.236Z,163.23
2024-04-18T07:28:14.908Z,161.16
2024-04-18T07:29:07.311Z,161.33
2024-04-18T07:30:07.337Z,161.72
2024-04-18T07:31:07.231Z,162.36
2024-04-18T07:32:07.422Z,161.70
2024-04-18T07:33:07.236Z,159.86
2024-04-18T07:34:07.467Z,153.00
2024-04-18T07:35:07.979Z,148.02
2024-04-18T07:36:07.198Z,144.35
2024-04-18T07:37:07.261Z,145.45
2024-04-18T07:38:07.251Z,140.98
2024-04-18T07:39:07.424Z,136.72
2024-04-18T07:40:07.289Z,131.59
2024-04-18T07:41:07.238Z,133.03
2024-04-18T07:42:07.224Z,131.70
2024-04-18T07:43:07.239Z,129.29
2024-04-18T07:44:08.626Z,126.41
2024-04-18T07:45:07.254Z,124.09
2024-04-18T07:46:07.259Z,120.13
2024-04-18T07:47:07.358Z,118.55
2024-04-18T07:48:07.501Z,117.54
2024-04-18T07:49:07.499Z,115.89
2024-04-18T07:50:07.342Z,112.58
2024-04-18T07:51:07.358Z,109.62
2024-04-18T07:52:12.660Z,107.70
2024-04-18T07:53:10.141Z,107.71
2024-04-18T07:54:07.389Z,107.83
2024-04-18T07:55:07.398Z,107.41
2024-04-18T07:56:07.914Z,104.18
2024-04-18T07:57:07.781Z,103.04
2024-04-18T07:58:08.159Z,101.21
2024-04-18T07:59:08.257Z,99.57
2024-04-18T08:00:08.486Z,98.52
2024-04-18T08:01:08.842Z,93.08
2024-04-18T08:02:08.919Z,92.38
2024-04-18T08:03:09.172Z,91.11
2024-04-18T08:04:25.731Z,91.14
2024-04-18T08:05:10.395Z,91.22
2024-04-18T08:06:09.750Z,91.27
2024-04-18T08:07:10.341Z,91.28
2024-04-18T08:08:10.473Z,91.38
2024-04-18T08:09:11.424Z,91.37
2024-04-18T08:10:11.132Z,91.45
2024-04-18T08:11:26.947Z,91.54
2024-04-18T08:12:24.003Z,91.45
2024-04-18T08:13:13.231Z,91.55
2024-04-18T08:14:11.897Z,91.60
2024-04-18T08:15:12.112Z,91.61
2024-04-18T08:16:08.499Z,91.76
2024-04-18T08:17:07.516Z,93.89
2024-04-18T08:18:08.003Z,97.00
2024-04-18T08:19:07.479Z,98.76
2024-04-18T08:20:07.950Z,103.14
2024-04-18T08:21:08.520Z,102.84
2024-04-18T08:22:07.413Z,106.02
2024-04-18T08:23:07.668Z,101.62
2024-04-18T08:24:08.029Z,99.44
2024-04-18T08:25:07.509Z,99.85
2024-04-18T08:26:07.437Z,95.71
2024-04-18T08:27:07.603Z,90.87
2024-04-18T08:28:07.629Z,79.23
2024-04-18T08:29:07.454Z,63.04
2024-04-18T08:30:07.580Z,50.00
2024-04-18T08:31:07.477Z,45.96
2024-04-18T08:32:07.744Z,47.42
2024-04-18T08:33:08.079Z,42.07
2024-04-18T08:34:11.931Z,37.97
2024-04-18T08:35:08.474Z,13.27
2024-04-18T08:36:07.548Z,0.00
2024-04-18T08:37:08.014Z,0.00
2024-04-18T08:38:07.507Z,0.00
2024-04-18T08:39:07.493Z,0.00
2024-04-18T08:40:07.480Z,0.00
2024-04-18T08:41:07.506Z,0.00
2024-04-18T08:42:07.985Z,0.00
2024-04-18T08:43:08.490Z,0.00
2024-04-18T08:44:07.667Z,0.00
2024-04-18T08:45:08.137Z,5.91
2024-04-18T08:46:08.393Z,25.79
2024-04-18T08:47:08.106Z,41.08
2024-04-18T08:48:08.218Z,50.26
2024-04-18T08:49:07.947Z,54.29
2024-04-18T08:50:07.867Z,59.48
2024-04-18T08:51:07.930Z,59.33
2024-04-18T08:52:08.514Z,60.13
2024-04-18T08:53:08.021Z,63.12
2024-04-18T08:54:08.014Z,69.95
2024-04-18T08:55:08.039Z,76.49
2024-04-18T08:56:08.109Z,77.82
2024-04-18T08:57:08.516Z,81.28
2024-04-18T08:58:08.162Z,89.00
2024-04-18T08:59:08.921Z,95.53
2024-04-18T09:00:08.291Z,99.72
2024-04-18T09:01:08.332Z,106.68
2024-04-18T09:02:08.372Z,109.15
2024-04-18T09:03:08.469Z,114.12
2024-04-18T09:04:08.460Z,123.55
2024-04-18T09:05:08.463Z,131.45
2024-04-18T09:06:08.500Z,139.36
2024-04-18T09:07:08.511Z,144.21
2024-04-18T09:08:08.526Z,148.45
2024-04-18T09:09:08.972Z,156.48
2024-04-18T09:10:08.554Z,165.31
2024-04-18T09:11:08.648Z,169.34
2024-04-18T09:12:08.642Z,168.68
2024-04-18T09:13:09.474Z,174.29
2024-04-18T09:14:08.975Z,182.62
2024-04-18T09:15:09.717Z,184.41
2024-04-18T09:16:08.761Z,186.27
2024-04-18T09:17:08.833Z,191.46
2024-04-18T09:18:09.047Z,192.46
2024-04-18T09:19:09.533Z,195.54
2024-04-18T09:20:08.956Z,198.62
2024-04-18T09:21:09.067Z,198.35
2024-04-18T09:22:09.102Z,199.34
2024-04-18T09:23:09.104Z,198.84
2024-04-18T09:24:09.497Z,199.44
2024-04-18T09:25:09.472Z,198.05
2024-04-18T09:26:10.060Z,198.81
2024-04-18T09:27:09.279Z,200.00
2024-04-18T09:28:09.981Z,199.47
2024-04-18T09:29:09.744Z,198.37
2024-04-18T09:30:09.526Z,199.22
2024-04-18T09:31:09.475Z,198.69
2024-04-18T09:32:11.480Z,200.00
2024-04-18T09:33:09.673Z,200.00
2024-04-18T09:34:09.790Z,198.64
2024-04-18T09:35:09.731Z,198.05
2024-04-18T09:36:09.848Z,192.23
2024-04-18T09:37:09.917Z,187.19
2024-04-18T09:38:10.908Z,190.55
2024-04-18T09:39:09.985Z,190.57
2024-04-18T09:40:10.085Z,184.83
2024-04-18T09:41:10.110Z,185.19
2024-04-18T09:42:10.509Z,183.38
2024-04-18T09:43:10.106Z,182.65
2024-04-18T09:44:10.528Z,178.82
2024-04-18T09:45:10.184Z,178.18
2024-04-18T09:46:12.992Z,175.71
2024-04-18T09:47:10.510Z,175.20
2024-04-18T09:48:10.255Z,175.23
2024-04-18T09:49:10.228Z,174.64
2024-04-18T09:50:10.216Z,173.81
2024-04-18T09:51:10.172Z,169.55
2024-04-18T09:52:10.551Z,170.26
2024-04-18T09:53:10.171Z,167.52
2024-04-18T09:54:10.216Z,171.34
2024-04-18T09:55:10.184Z,173.38
2024-04-18T09:56:10.189Z,173.45
2024-04-18T09:57:11.042Z,177.36
2024-04-18T09:58:10.181Z,179.07
2024-04-18T09:59:10.173Z,183.69
2024-04-18T10:00:10.214Z,188.21
2024-04-18T10:01:10.221Z,188.93
2024-04-18T10:02:10.546Z,194.41
2024-04-18T10:03:10.330Z,194.93
2024-04-18T10:04:10.743Z,195.03
2024-04-18T10:05:10.282Z,199.33
2024-04-18T10:06:10.319Z,199.58
2024-04-18T10:07:11.058Z,200.00
2024-04-18T10:08:11.055Z,199.96
2024-04-18T10:09:53.386Z,50.00
2024-04-18T10:10:53.427Z,50.00
2024-04-18T10:11:53.379Z,50.00
2024-04-18T10:12:53.340Z,50.00
2024-04-18T10:13:53.503Z,50.00
2024-04-18T10:14:53.535Z,51.68
2024-04-18T10:15:53.310Z,56.42
2024-04-18T10:16:53.372Z,54.89
2024-04-18T10:17:53.381Z,56.31
2024-04-18T10:18:54.464Z,62.22
2024-04-18T10:19:53.437Z,66.96
2024-04-18T10:20:53.321Z,68.81
2024-04-18T10:22:06.133Z,64.60
2024-04-18T10:22:54.987Z,64.90
2024-04-18T10:23:53.446Z,66.29
2024-04-18T10:24:53.369Z,68.79
2024-04-18T10:25:53.915Z,74.16
2024-04-18T10:26:53.322Z,77.75
2024-04-18T10:27:53.351Z,76.11
2024-04-18T10:28:53.313Z,74.58
2024-04-18T10:29:53.428Z,64.96
2024-04-18T10:30:53.419Z,50.88
2024-04-18T10:31:53.316Z,50.24
2024-04-18T10:32:53.427Z,51.41
2024-04-18T10:33:53.467Z,50.35
2024-04-18T10:34:54.417Z,49.55
2024-04-18T10:35:53.892Z,49.44
2024-04-18T10:36:53.466Z,51.08
2024-04-18T10:37:54.458Z,51.78
2024-04-18T10:38:53.618Z,52.53
2024-04-18T10:39:53.583Z,50.50
2024-04-18T10:40:54.342Z,51.68
2024-04-18T10:41:53.687Z,51.05
2024-04-18T10:42:54.504Z,52.95
2024-04-18T10:43:53.732Z,51.17
2024-04-18T10:44:53.787Z,51.51
2024-04-18T10:45:53.828Z,52.41
2024-04-18T10:46:53.714Z,54.27
2024-04-18T10:47:53.959Z,55.45
2024-04-18T10:48:53.989Z,57.05
2024-04-18T10:49:53.876Z,56.17
2024-04-18T10:50:54.410Z,55.46
2024-04-18T10:51:53.884Z,54.32
2024-04-18T10:52:53.957Z,55.17
2024-04-18T10:53:53.897Z,53.17
2024-04-18T10:54:53.974Z,54.36
2024-04-18T10:55:53.901Z,57.50
2024-04-18T10:56:53.978Z,56.26
2024-04-18T10:57:54.041Z,55.54
2024-04-18T10:58:54.027Z,54.37
2024-04-18T10:59:54.153Z,55.11
2024-04-18T11:00:54.139Z,56.54
2024-04-18T11:01:54.177Z,59.05
2024-04-18T11:02:55.955Z,60.87
2024-04-18T11:03:54.502Z,61.92
2024-04-18T11:04:54.379Z,62.73
2024-04-18T11:05:54.391Z,63.24
2024-04-18T11:06:54.433Z,68.81
2024-04-18T11:07:54.795Z,70.58
2024-04-18T11:08:54.591Z,71.08
2024-04-18T11:09:54.627Z,71.51
2024-04-18T11:10:54.719Z,71.95
2024-04-18T11:11:54.746Z,74.07
2024-04-18T11:12:54.847Z,74.48
2024-04-18T11:13:54.976Z,75.98
2024-04-18T11:14:55.010Z,73.70
2024-04-18T11:15:55.042Z,74.94
2024-04-18T11:16:55.437Z,73.78
2024-04-18T11:17:55.273Z,77.78
2024-04-18T11:18:55.375Z,77.51
2024-04-18T11:19:55.397Z,76.68
2024-04-18T11:20:55.396Z,79.80
2024-04-18T11:21:55.957Z,109.05
2024-04-18T11:23:01.336Z,118.89
2024-04-18T11:23:56.521Z,118.97
2024-04-18T11:24:55.484Z,118.39
2024-04-18T11:25:55.464Z,116.45
2024-04-18T11:26:55.535Z,116.66
2024-04-18T11:27:55.477Z,116.33
2024-04-18T11:28:55.467Z,115.84
2024-04-18T11:29:55.461Z,111.16
2024-04-18T11:30:55.447Z,109.10
2024-04-18T11:31:55.496Z,103.93
2024-04-18T11:32:55.490Z,101.81
2024-04-18T11:33:55.554Z,97.86
2024-04-18T11:35:00.616Z,101.96
2024-04-18T11:35:56.529Z,99.74
2024-04-18T11:36:55.466Z,91.71
2024-04-18T11:37:55.448Z,91.48
2024-04-18T11:38:55.503Z,84.74
2024-04-18T11:39:55.451Z,82.12
2024-04-18T11:40:55.456Z,77.17
2024-04-18T11:41:55.456Z,75.27
2024-04-18T11:42:55.480Z,69.59
2024-04-18T11:43:55.488Z,65.20
2024-04-18T11:44:55.451Z,59.95
2024-04-18T11:45:55.481Z,55.70
2024-04-18T11:46:55.470Z,54.63
2024-04-18T11:47:55.556Z,51.18
2024-04-18T11:48:55.702Z,50.91
2024-04-18T11:49:55.445Z,49.98
2024-04-18T11:50:55.503Z,50.06
2024-04-18T11:51:55.454Z,50.00
2024-04-18T11:52:55.515Z,49.53
2024-04-18T11:53:55.489Z,51.81
2024-04-18T11:54:55.462Z,52.99
2024-04-18T11:55:57.602Z,51.40
2024-04-18T11:56:55.690Z,51.98
2024-04-18T11:57:55.479Z,51.15
2024-04-18T11:58:55.485Z,50.57
2024-04-18T11:59:55.573Z,55.60
2024-04-18T12:00:55.482Z,54.60
2024-04-18T12:01:55.580Z,54.49
2024-04-18T12:02:55.532Z,54.10
2024-04-18T12:03:55.625Z,52.68
2024-04-18T12:04:55.521Z,53.42
2024-04-18T12:05:55.497Z,50.44
2024-04-18T12:06:55.483Z,50.28
2024-04-18T12:07:55.469Z,50.33
2024-04-18T12:08:56.284Z,49.91
2024-04-18T12:09:55.489Z,51.19
2024-04-18T12:10:55.498Z,53.22
2024-04-18T12:11:55.543Z,52.86
2024-04-18T12:12:55.468Z,50.72
2024-04-18T12:13:55.553Z,51.61
2024-04-18T12:14:55.545Z,54.77
2024-04-18T12:15:55.646Z,54.38
2024-04-18T12:16:55.492Z,54.50
2024-04-18T12:17:55.580Z,56.78
2024-04-18T12:18:55.573Z,59.06
2024-04-18T12:19:55.480Z,59.28
2024-04-18T12:20:55.540Z,61.10
2024-04-18T12:21:55.503Z,63.16
2024-04-18T12:22:55.504Z,58.80
2024-04-18T12:23:55.512Z,61.61
2024-04-18T12:24:55.610Z,62.08
2024-04-18T12:25:55.493Z,63.13
2024-04-18T12:26:55.535Z,66.67
2024-04-18T12:27:55.549Z,67.76
2024-04-18T12:28:55.556Z,64.96
2024-04-18T12:29:55.509Z,68.12
2024-04-18T12:30:55.516Z,64.57
2024-04-18T12:31:55.498Z,66.53
2024-04-18T12:32:55.624Z,66.51
2024-04-18T12:33:55.686Z,64.46
2024-04-18T12:34:55.553Z,61.81
2024-04-18T12:35:55.518Z,63.12
2024-04-18T12:36:55.546Z,56.25
2024-04-18T12:37:55.528Z,52.16
2024-04-18T12:38:55.570Z,55.87
2024-04-18T12:39:55.557Z,53.08